sensor_id;sensor_type;location;lat;lon;timestamp;pressure;altitude;pressure_sealevel;temperature;humidity
71903;BME280;59778;50.310;18.780;2023-07-31T00:05:11;98306.72;;;17.23;100.00
71903;BME280;59778;50.310;18.780;2023-07-31T00:20:32;98309.88;;;17.15;100.00
71903;BME280;59778;50.310;18.780;2023-07-31T00:35:53;98303.97;;;16.90;100.00
71903;BME280;59778;50.310;18.780;2023-07-31T00:51:15;98324.84;;;16.63;100.00
71903;BME280;59778;50.310;18.780;2023-07-31T01:22:30;98346.72;;;16.34;100.00
71903;BME280;59778;50.310;18.780;2023-07-31T01:37:55;98363.34;;;16.56;100.00
71903;BME280;59778;50.310;18.780;2023-07-31T01:53:16;98357.50;;;16.52;100.00
71903;BME280;59778;50.310;18.780;2023-07-31T02:08:37;98367.09;;;16.38;100.00
71903;BME280;59778;50.310;18.780;2023-07-31T02:23:59;98384.25;;;16.34;100.00
71903;BME280;59778;50.310;18.780;2023-07-31T02:39:20;98368.56;;;16.18;100.00
71903;BME280;59778;50.310;18.780;2023-07-31T02:54:41;98397.66;;;16.07;100.00
71903;BME280;59778;50.310;18.780;2023-07-31T03:10:02;98411.34;;;16.19;100.00
71903;BME280;59778;50.310;18.780;2023-07-31T03:25:24;98400.34;;;16.42;100.00
71903;BME280;59778;50.310;18.780;2023-07-31T03:40:45;98423.13;;;16.31;100.00
71903;BME280;59778;50.310;18.780;2023-07-31T03:56:06;98425.84;;;16.42;100.00
71903;BME280;59778;50.310;18.780;2023-07-31T04:11:27;98424.75;;;16.43;100.00
71903;BME280;59778;50.310;18.780;2023-07-31T04:26:48;98432.34;;;16.76;100.00
71903;BME280;59778;50.310;18.780;2023-07-31T04:42:10;98436.22;;;16.92;100.00
71903;BME280;59778;50.310;18.780;2023-07-31T04:57:31;98435.72;;;16.95;100.00
71903;BME280;59778;50.310;18.780;2023-07-31T05:12:52;98434.88;;;17.06;100.00
71903;BME280;59778;50.310;18.780;2023-07-31T05:28:13;98443.34;;;17.33;99.28
71903;BME280;59778;50.310;18.780;2023-07-31T05:43:35;98443.72;;;17.70;93.66
71903;BME280;59778;50.310;18.780;2023-07-31T05:58:56;98444.91;;;17.90;90.54
71903;BME280;59778;50.310;18.780;2023-07-31T06:14:18;98449.44;;;18.52;87.02
71903;BME280;59778;50.310;18.780;2023-07-31T06:29:39;98449.13;;;19.13;82.13
71903;BME280;59778;50.310;18.780;2023-07-31T06:45:03;98442.44;;;19.31;80.30
71903;BME280;59778;50.310;18.780;2023-07-31T07:00:25;98452.25;;;20.07;78.89
71903;BME280;59778;50.310;18.780;2023-07-31T07:15:50;98454.75;;;20.09;78.81
71903;BME280;59778;50.310;18.780;2023-07-31T07:31:36;98453.75;;;20.67;72.93
71903;BME280;59778;50.310;18.780;2023-07-31T07:46:58;98444.81;;;21.02;73.94
71903;BME280;59778;50.310;18.780;2023-07-31T08:02:21;98463.03;;;21.03;72.22
71903;BME280;59778;50.310;18.780;2023-07-31T08:17:42;98467.72;;;20.92;70.72
71903;BME280;59778;50.310;18.780;2023-07-31T08:33:05;98454.75;;;21.95;65.44
71903;BME280;59778;50.310;18.780;2023-07-31T08:48:27;98459.69;;;21.83;65.76
71903;BME280;59778;50.310;18.780;2023-07-31T09:03:50;98438.59;;;21.32;64.51
71903;BME280;59778;50.310;18.780;2023-07-31T09:19:25;98444.78;;;22.15;61.35
71903;BME280;59778;50.310;18.780;2023-07-31T09:34:46;98429.56;;;22.27;57.09
71903;BME280;59778;50.310;18.780;2023-07-31T09:50:07;98425.47;;;23.58;55.48
71903;BME280;59778;50.310;18.780;2023-07-31T10:05:50;98422.81;;;24.16;55.13
71903;BME280;59778;50.310;18.780;2023-07-31T10:21:12;98399.97;;;23.90;49.87
71903;BME280;59778;50.310;18.780;2023-07-31T10:36:34;98390.84;;;23.89;49.87
71903;BME280;59778;50.310;18.780;2023-07-31T10:51:55;98371.44;;;23.84;49.16
71903;BME280;59778;50.310;18.780;2023-07-31T11:07:17;98347.84;;;23.87;49.68
71903;BME280;59778;50.310;18.780;2023-07-31T11:22:38;98350.91;;;24.43;47.98
71903;BME280;59778;50.310;18.780;2023-07-31T11:38:00;98343.63;;;24.71;47.37
71903;BME280;59778;50.310;18.780;2023-07-31T11:53:37;98338.72;;;23.53;50.76
71903;BME280;59778;50.310;18.780;2023-07-31T12:09:05;98322.63;;;23.83;52.06
71903;BME280;59778;50.310;18.780;2023-07-31T12:24:27;98303.94;;;24.65;48.86
71903;BME280;59778;50.310;18.780;2023-07-31T12:39:48;98281.53;;;25.55;46.53
71903;BME280;59778;50.310;18.780;2023-07-31T12:55:10;98268.25;;;24.35;47.48
71903;BME280;59778;50.310;18.780;2023-07-31T13:10:32;98248.63;;;24.93;45.66
71903;BME280;59778;50.310;18.780;2023-07-31T13:25:53;98238.50;;;24.40;47.19
71903;BME280;59778;50.310;18.780;2023-07-31T13:41:14;98227.72;;;24.95;45.86
71903;BME280;59778;50.310;18.780;2023-07-31T13:56:35;98219.97;;;24.55;48.18
71903;BME280;59778;50.310;18.780;2023-07-31T14:11:57;98229.59;;;23.67;49.77
71903;BME280;59778;50.310;18.780;2023-07-31T14:27:18;98226.31;;;23.65;50.56
71903;BME280;59778;50.310;18.780;2023-07-31T14:42:39;98220.91;;;23.50;51.24
71903;BME280;59778;50.310;18.780;2023-07-31T14:58:01;98193.50;;;23.72;51.84
71903;BME280;59778;50.310;18.780;2023-07-31T15:13:24;98195.31;;;25.23;51.28
71903;BME280;59778;50.310;18.780;2023-07-31T15:28:52;98179.56;;;24.25;48.87
71903;BME280;59778;50.310;18.780;2023-07-31T15:44:16;98162.50;;;25.39;47.55
71903;BME280;59778;50.310;18.780;2023-07-31T15:59:37;98152.22;;;24.13;50.46
71903;BME280;59778;50.310;18.780;2023-07-31T16:14:58;98139.66;;;24.58;51.26
71903;BME280;59778;50.310;18.780;2023-07-31T16:30:20;98129.53;;;24.49;49.71
71903;BME280;59778;50.310;18.780;2023-07-31T16:45:41;98123.31;;;23.95;51.26
71903;BME280;59778;50.310;18.780;2023-07-31T17:01:03;98124.88;;;23.59;53.10
71903;BME280;59778;50.310;18.780;2023-07-31T17:16:24;98130.31;;;23.40;54.05
71903;BME280;59778;50.310;18.780;2023-07-31T17:31:49;98120.63;;;23.14;55.09
71903;BME280;59778;50.310;18.780;2023-07-31T17:47:11;98121.97;;;22.88;57.68
71903;BME280;59778;50.310;18.780;2023-07-31T18:02:32;98118.19;;;22.40;60.97
71903;BME280;59778;50.310;18.780;2023-07-31T18:17:56;98140.00;;;21.97;68.88
71903;BME280;59778;50.310;18.780;2023-07-31T18:33:42;98117.50;;;21.50;71.02
71903;BME280;59778;50.310;18.780;2023-07-31T18:49:03;98120.13;;;20.60;75.00
71903;BME280;59778;50.310;18.780;2023-07-31T19:04:25;98143.44;;;20.02;78.36
71903;BME280;59778;50.310;18.780;2023-07-31T19:19:46;98138.25;;;19.49;80.03
71903;BME280;59778;50.310;18.780;2023-07-31T19:35:08;98132.94;;;18.95;82.58
71903;BME280;59778;50.310;18.780;2023-07-31T19:50:29;98105.44;;;18.58;84.63
71903;BME280;59778;50.310;18.780;2023-07-31T20:05:51;98112.31;;;18.29;86.76
71903;BME280;59778;50.310;18.780;2023-07-31T20:21:12;98100.94;;;18.20;86.75
71903;BME280;59778;50.310;18.780;2023-07-31T20:36:34;98086.84;;;17.85;87.75
71903;BME280;59778;50.310;18.780;2023-07-31T20:51:56;98058.94;;;17.71;89.62
71903;BME280;59778;50.310;18.780;2023-07-31T21:07:17;98038.84;;;17.66;89.57
71903;BME280;59778;50.310;18.780;2023-07-31T21:22:38;98034.56;;;17.53;90.26
71903;BME280;59778;50.310;18.780;2023-07-31T21:38:00;98024.22;;;17.38;89.65
71903;BME280;59778;50.310;18.780;2023-07-31T21:53:21;98004.81;;;17.45;90.09
71903;BME280;59778;50.310;18.780;2023-07-31T22:08:42;97986.97;;;16.99;92.20
71903;BME280;59778;50.310;18.780;2023-07-31T22:24:04;97978.06;;;17.35;90.95
71903;BME280;59778;50.310;18.780;2023-07-31T22:39:28;97976.53;;;17.44;91.83
71903;BME280;59778;50.310;18.780;2023-07-31T22:54:49;97977.53;;;17.60;90.87
71903;BME280;59778;50.310;18.780;2023-07-31T23:10:11;97963.13;;;17.75;91.30
71903;BME280;59778;50.310;18.780;2023-07-31T23:25:37;97940.78;;;17.93;91.36
71903;BME280;59778;50.310;18.780;2023-07-31T23:40:58;97915.88;;;17.46;93.88
71903;BME280;59778;50.310;18.780;2023-07-31T23:56:20;97901.22;;;17.35;93.53
